sensor_id;sensor_type;location;lat;lon;timestamp;pressure;altitude;pressure_sealevel;temperature;humidity
86118;BME280;76780;43.120;5.934;2024-03-22T00:01:55;101957.69;;;13.37;89.12
86118;BME280;76780;43.120;5.934;2024-03-22T00:04:21;101955.38;;;13.39;88.89
86118;BME280;76780;43.120;5.934;2024-03-22T00:06:49;101958.84;;;13.36;89.44
86118;BME280;76780;43.120;5.934;2024-03-22T00:09:15;101958.34;;;13.34;89.65
86118;BME280;76780;43.120;5.934;2024-03-22T00:11:42;101966.91;;;13.29;89.18
86118;BME280;76780;43.120;5.934;2024-03-22T00:14:08;101954.38;;;13.35;89.58
86118;BME280;76780;43.120;5.934;2024-03-22T00:16:34;101957.69;;;13.37;89.44
86118;BME280;76780;43.120;5.934;2024-03-22T00:18:59;101949.41;;;13.32;88.84
86118;BME280;76780;43.120;5.934;2024-03-22T00:21:25;101949.03;;;13.25;89.31
86118;BME280;76780;43.120;5.934;2024-03-22T00:23:50;101943.09;;;13.27;89.67
86118;BME280;76780;43.120;5.934;2024-03-22T00:26:16;101945.88;;;13.27;89.69
86118;BME280;76780;43.120;5.934;2024-03-22T00:28:41;101948.22;;;13.33;90.08
86118;BME280;76780;43.120;5.934;2024-03-22T00:31:07;101946.25;;;13.34;89.08
86118;BME280;76780;43.120;5.934;2024-03-22T00:33:33;101949.41;;;13.32;89.70
86118;BME280;76780;43.120;5.934;2024-03-22T00:35:58;101942.38;;;13.21;89.66
86118;BME280;76780;43.120;5.934;2024-03-22T00:38:24;101945.00;;;13.09;89.67
86118;BME280;76780;43.120;5.934;2024-03-22T00:40:49;101945.47;;;13.11;90.05
86118;BME280;76780;43.120;5.934;2024-03-22T00:43:14;101940.84;;;13.07;89.80
86118;BME280;76780;43.120;5.934;2024-03-22T00:45:40;101940.66;;;13.03;89.97
86118;BME280;76780;43.120;5.934;2024-03-22T00:48:06;101934.22;;;13.03;89.48
86118;BME280;76780;43.120;5.934;2024-03-22T00:50:32;101939.16;;;13.06;90.28
86118;BME280;76780;43.120;5.934;2024-03-22T00:52:57;101935.91;;;12.90;89.31
86118;BME280;76780;43.120;5.934;2024-03-22T00:55:23;101930.16;;;12.95;89.92
86118;BME280;76780;43.120;5.934;2024-03-22T00:57:49;101926.31;;;12.91;89.95
86118;BME280;76780;43.120;5.934;2024-03-22T01:00:15;101935.91;;;12.90;90.38
86118;BME280;76780;43.120;5.934;2024-03-22T01:02:41;101929.16;;;13.13;90.47
86118;BME280;76780;43.120;5.934;2024-03-22T01:05:06;101929.00;;;13.18;90.29
86118;BME280;76780;43.120;5.934;2024-03-22T01:07:32;101922.84;;;13.16;90.15
86118;BME280;76780;43.120;5.934;2024-03-22T01:09:57;101926.09;;;13.01;89.92
86118;BME280;76780;43.120;5.934;2024-03-22T01:12:23;101931.94;;;12.91;90.72
86118;BME280;76780;43.120;5.934;2024-03-22T01:14:48;101930.56;;;12.80;90.14
86118;BME280;76780;43.120;5.934;2024-03-22T01:17:14;101929.69;;;12.71;90.48
86118;BME280;76780;43.120;5.934;2024-03-22T01:19:39;101928.13;;;12.65;91.36
86118;BME280;76780;43.120;5.934;2024-03-22T01:22:04;101933.63;;;12.70;91.11
86118;BME280;76780;43.120;5.934;2024-03-22T01:24:30;101933.44;;;12.66;91.32
86118;BME280;76780;43.120;5.934;2024-03-22T01:26:55;101931.47;;;12.67;90.74
86118;BME280;76780;43.120;5.934;2024-03-22T01:29:21;101925.97;;;12.84;90.28
86118;BME280;76780;43.120;5.934;2024-03-22T01:31:47;101916.47;;;12.71;89.14
86118;BME280;76780;43.120;5.934;2024-03-22T01:34:13;101926.97;;;12.66;90.63
86118;BME280;76780;43.120;5.934;2024-03-22T01:36:39;101923.78;;;12.81;89.97
86118;BME280;76780;43.120;5.934;2024-03-22T01:39:04;101910.22;;;12.74;89.35
86118;BME280;76780;43.120;5.934;2024-03-22T01:41:29;101911.16;;;12.70;90.47
86118;BME280;76780;43.120;5.934;2024-03-22T01:43:55;101921.63;;;12.78;89.54
86118;BME280;76780;43.120;5.934;2024-03-22T01:46:20;101919.56;;;12.70;89.82
86118;BME280;76780;43.120;5.934;2024-03-22T01:48:45;101917.34;;;12.58;89.66
86118;BME280;76780;43.120;5.934;2024-03-22T01:51:11;101910.22;;;12.52;89.89
86118;BME280;76780;43.120;5.934;2024-03-22T01:53:37;101914.50;;;12.50;89.77
86118;BME280;76780;43.120;5.934;2024-03-22T01:56:03;101913.47;;;12.46;90.19
86118;BME280;76780;43.120;5.934;2024-03-22T01:58:29;101905.50;;;12.39;90.19
86118;BME280;76780;43.120;5.934;2024-03-22T02:00:54;101908.84;;;12.28;89.99
86118;BME280;76780;43.120;5.934;2024-03-22T02:03:20;101904.03;;;12.20;90.79
86118;BME280;76780;43.120;5.934;2024-03-22T02:05:45;101906.72;;;12.25;90.88
86118;BME280;76780;43.120;5.934;2024-03-22T02:08:10;101909.13;;;12.40;91.01
86118;BME280;76780;43.120;5.934;2024-03-22T02:10:36;101903.91;;;12.47;90.61
86118;BME280;76780;43.120;5.934;2024-03-22T02:13:02;101919.22;;;12.41;90.37
86118;BME280;76780;43.120;5.934;2024-03-22T02:15:27;101921.50;;;12.39;90.42
86118;BME280;76780;43.120;5.934;2024-03-22T02:17:52;101919.31;;;12.36;90.12
86118;BME280;76780;43.120;5.934;2024-03-22T02:20:18;101927.44;;;12.37;90.93
86118;BME280;76780;43.120;5.934;2024-03-22T02:22:43;101916.47;;;12.27;90.02
86118;BME280;76780;43.120;5.934;2024-03-22T02:25:09;101928.91;;;12.35;90.39
86118;BME280;76780;43.120;5.934;2024-03-22T02:27:34;101919.47;;;12.31;90.54
86118;BME280;76780;43.120;5.934;2024-03-22T02:30:00;101914.59;;;12.23;90.34
86118;BME280;76780;43.120;5.934;2024-03-22T02:32:27;101917.53;;;12.18;90.50
86118;BME280;76780;43.120;5.934;2024-03-22T02:34:53;101914.22;;;12.16;90.13
86118;BME280;76780;43.120;5.934;2024-03-22T02:37:18;101917.13;;;12.11;90.75
86118;BME280;76780;43.120;5.934;2024-03-22T02:39:44;101911.75;;;12.01;90.88
86118;BME280;76780;43.120;5.934;2024-03-22T02:42:09;101908.06;;;11.92;90.44
86118;BME280;76780;43.120;5.934;2024-03-22T02:44:35;101891.63;;;11.99;90.92
86118;BME280;76780;43.120;5.934;2024-03-22T02:47:03;101897.88;;;11.96;91.39
86118;BME280;76780;43.120;5.934;2024-03-22T02:49:29;101892.38;;;11.91;90.80
86118;BME280;76780;43.120;5.934;2024-03-22T02:51:54;101875.75;;;11.81;90.77
86118;BME280;76780;43.120;5.934;2024-03-22T02:54:20;101882.50;;;11.93;91.71
86118;BME280;76780;43.120;5.934;2024-03-22T02:56:45;101877.47;;;12.04;91.69
86118;BME280;76780;43.120;5.934;2024-03-22T02:59:10;101885.78;;;12.09;91.55
86118;BME280;76780;43.120;5.934;2024-03-22T03:01:36;101878.50;;;12.08;91.19
86118;BME280;76780;43.120;5.934;2024-03-22T03:04:01;101873.91;;;12.12;91.46
86118;BME280;76780;43.120;5.934;2024-03-22T03:06:27;101878.50;;;12.08;91.19
86118;BME280;76780;43.120;5.934;2024-03-22T03:08:52;101873.53;;;12.05;91.03
86118;BME280;76780;43.120;5.934;2024-03-22T03:11:17;101875.41;;;11.96;91.47
86118;BME280;76780;43.120;5.934;2024-03-22T03:13:43;101869.94;;;11.91;90.89
86118;BME280;76780;43.120;5.934;2024-03-22T03:16:08;101877.09;;;11.83;91.28
86118;BME280;76780;43.120;5.934;2024-03-22T03:18:34;101875.56;;;11.77;90.81
86118;BME280;76780;43.120;5.934;2024-03-22T03:20:59;101862.41;;;11.78;91.32
86118;BME280;76780;43.120;5.934;2024-03-22T03:23:24;101876.50;;;11.73;91.05
86118;BME280;76780;43.120;5.934;2024-03-22T03:25:50;101883.25;;;11.72;91.31
86118;BME280;76780;43.120;5.934;2024-03-22T03:28:15;101877.16;;;11.70;90.86
86118;BME280;76780;43.120;5.934;2024-03-22T03:30:41;101876.75;;;11.63;91.16
86118;BME280;76780;43.120;5.934;2024-03-22T03:33:06;101881.28;;;11.59;91.42
86118;BME280;76780;43.120;5.934;2024-03-22T03:35:32;101874.03;;;11.58;91.26
86118;BME280;76780;43.120;5.934;2024-03-22T03:37:57;101875.09;;;11.62;91.38
86118;BME280;76780;43.120;5.934;2024-03-22T03:40:22;101876.94;;;11.66;91.31
86118;BME280;76780;43.120;5.934;2024-03-22T03:42:50;101878.25;;;11.82;90.82
86118;BME280;76780;43.120;5.934;2024-03-22T03:45:16;101891.22;;;11.92;90.10
86118;BME280;76780;43.120;5.934;2024-03-22T03:47:41;101878.34;;;11.91;89.39
86118;BME280;76780;43.120;5.934;2024-03-22T03:50:07;101874.00;;;11.85;90.18
86118;BME280;76780;43.120;5.934;2024-03-22T03:52:32;101891.47;;;11.82;90.52
86118;BME280;76780;43.120;5.934;2024-03-22T03:54:57;101883.16;;;11.77;90.11
86118;BME280;76780;43.120;5.934;2024-03-22T03:57:23;101887.94;;;11.76;90.72
86118;BME280;76780;43.120;5.934;2024-03-22T03:59:48;101895.41;;;11.81;91.04
86118;BME280;76780;43.120;5.934;2024-03-22T04:02:13;101909.41;;;11.81;91.01
86118;BME280;76780;43.120;5.934;2024-03-22T04:04:39;101910.06;;;11.78;90.81
86118;BME280;76780;43.120;5.934;2024-03-22T04:07:04;101916.59;;;11.73;90.17
86118;BME280;76780;43.120;5.934;2024-03-22T04:09:30;101909.53;;;11.62;90.70
86118;BME280;76780;43.120;5.934;2024-03-22T04:11:56;101919.41;;;11.60;90.33
86118;BME280;76780;43.120;5.934;2024-03-22T04:14:26;101915.16;;;11.49;90.55
86118;BME280;76780;43.120;5.934;2024-03-22T04:16:52;101909.53;;;11.49;90.15
86118;BME280;76780;43.120;5.934;2024-03-22T04:19:21;101909.53;;;11.49;90.51
86118;BME280;76780;43.120;5.934;2024-03-22T04:21:46;101910.16;;;11.46;90.37
86118;BME280;76780;43.120;5.934;2024-03-22T04:24:12;101919.19;;;11.43;90.64
86118;BME280;76780;43.120;5.934;2024-03-22T04:26:37;101917.63;;;11.37;90.90
86118;BME280;76780;43.120;5.934;2024-03-22T04:29:03;101917.03;;;11.40;90.75
86118;BME280;76780;43.120;5.934;2024-03-22T04:31:28;101912.34;;;11.35;90.68
86118;BME280;76780;43.120;5.934;2024-03-22T04:33:53;101919.41;;;11.33;90.73
86118;BME280;76780;43.120;5.934;2024-03-22T04:36:19;101911.19;;;11.36;90.71
86118;BME280;76780;43.120;5.934;2024-03-22T04:38:44;101911.00;;;11.33;90.60
86118;BME280;76780;43.120;5.934;2024-03-22T04:41:10;101918.91;;;11.31;91.02
86118;BME280;76780;43.120;5.934;2024-03-22T04:43:35;101928.53;;;11.25;91.25
86118;BME280;76780;43.120;5.934;2024-03-22T04:46:00;101922.81;;;11.30;90.83
86118;BME280;76780;43.120;5.934;2024-03-22T04:48:26;101934.66;;;11.27;90.69
86118;BME280;76780;43.120;5.934;2024-03-22T04:50:52;101929.06;;;11.27;91.38
86118;BME280;76780;43.120;5.934;2024-03-22T04:53:19;101931.75;;;11.18;91.23
86118;BME280;76780;43.120;5.934;2024-03-22T04:55:46;101932.16;;;11.12;91.14
86118;BME280;76780;43.120;5.934;2024-03-22T04:58:16;101933.81;;;11.13;91.45
86118;BME280;76780;43.120;5.934;2024-03-22T05:00:42;101943.78;;;11.19;91.99
86118;BME280;76780;43.120;5.934;2024-03-22T05:03:08;101939.63;;;11.30;91.96
86118;BME280;76780;43.120;5.934;2024-03-22T05:05:34;101947.13;;;11.34;92.03
86118;BME280;76780;43.120;5.934;2024-03-22T05:08:00;101949.63;;;11.36;91.15
86118;BME280;76780;43.120;5.934;2024-03-22T05:10:25;101953.34;;;11.31;90.92
86118;BME280;76780;43.120;5.934;2024-03-22T05:12:51;101954.78;;;11.29;90.67
86118;BME280;76780;43.120;5.934;2024-03-22T05:15:16;101950.22;;;11.33;90.56
86118;BME280;76780;43.120;5.934;2024-03-22T05:17:42;101959.25;;;11.30;90.46
86118;BME280;76780;43.120;5.934;2024-03-22T05:20:09;101962.69;;;11.27;90.42
86118;BME280;76780;43.120;5.934;2024-03-22T05:22:38;101961.41;;;11.19;90.50
86118;BME280;76780;43.120;5.934;2024-03-22T05:25:04;101970.13;;;11.18;90.98
86118;BME280;76780;43.120;5.934;2024-03-22T05:27:32;101960.78;;;11.09;91.17
86118;BME280;76780;43.120;5.934;2024-03-22T05:29:58;101963.50;;;11.14;91.14
86118;BME280;76780;43.120;5.934;2024-03-22T05:32:24;101970.84;;;11.10;91.06
86118;BME280;76780;43.120;5.934;2024-03-22T05:34:50;101968.66;;;11.07;91.12
86118;BME280;76780;43.120;5.934;2024-03-22T05:37:16;101970.75;;;11.15;91.03
86118;BME280;76780;43.120;5.934;2024-03-22T05:39:41;101979.66;;;11.17;91.17
86118;BME280;76780;43.120;5.934;2024-03-22T05:42:07;101973.56;;;11.15;90.94
86118;BME280;76780;43.120;5.934;2024-03-22T05:44:33;101976.38;;;11.15;91.07
86118;BME280;76780;43.120;5.934;2024-03-22T05:46:58;101974.72;;;11.14;91.30
86118;BME280;76780;43.120;5.934;2024-03-22T05:49:23;101981.31;;;11.18;91.07
86118;BME280;76780;43.120;5.934;2024-03-22T05:51:49;101986.16;;;11.31;90.24
86118;BME280;76780;43.120;5.934;2024-03-22T05:54:14;101993.59;;;11.35;89.75
86118;BME280;76780;43.120;5.934;2024-03-22T05:56:40;101992.56;;;11.31;89.95
86118;BME280;76780;43.120;5.934;2024-03-22T05:59:05;101987.78;;;11.45;89.21
86118;BME280;76780;43.120;5.934;2024-03-22T06:01:31;101980.75;;;11.48;89.18
86118;BME280;76780;43.120;5.934;2024-03-22T06:03:57;101983.78;;;11.51;88.67
86118;BME280;76780;43.120;5.934;2024-03-22T06:06:23;101971.22;;;11.49;88.39
86118;BME280;76780;43.120;5.934;2024-03-22T06:08:51;101978.28;;;11.46;88.97
86118;BME280;76780;43.120;5.934;2024-03-22T06:11:18;101980.13;;;11.51;88.04
86118;BME280;76780;43.120;5.934;2024-03-22T06:13:44;101978.91;;;11.57;88.22
86118;BME280;76780;43.120;5.934;2024-03-22T06:16:09;101984.13;;;11.63;87.97
86118;BME280;76780;43.120;5.934;2024-03-22T06:18:35;101989.41;;;11.65;87.40
86118;BME280;76780;43.120;5.934;2024-03-22T06:21:00;101979.31;;;11.64;86.88
86118;BME280;76780;43.120;5.934;2024-03-22T06:23:26;101977.06;;;11.66;86.59
86118;BME280;76780;43.120;5.934;2024-03-22T06:25:52;101986.41;;;11.75;86.42
86118;BME280;76780;43.120;5.934;2024-03-22T06:28:17;101989.47;;;12.00;85.65
86118;BME280;76780;43.120;5.934;2024-03-22T06:30:43;101993.75;;;12.47;84.11
86118;BME280;76780;43.120;5.934;2024-03-22T06:33:08;101995.09;;;13.46;80.54
86118;BME280;76780;43.120;5.934;2024-03-22T06:35:34;101990.63;;;14.40;75.55
86118;BME280;76780;43.120;5.934;2024-03-22T06:37:59;101996.06;;;14.96;73.98
86118;BME280;76780;43.120;5.934;2024-03-22T06:40:27;102000.03;;;15.12;73.05
86118;BME280;76780;43.120;5.934;2024-03-22T06:42:53;102001.94;;;15.54;70.94
86118;BME280;76780;43.120;5.934;2024-03-22T06:45:18;101998.22;;;16.00;68.17
86118;BME280;76780;43.120;5.934;2024-03-22T06:47:44;101999.00;;;16.58;66.53
86118;BME280;76780;43.120;5.934;2024-03-22T06:50:09;101997.00;;;16.79;64.82
86118;BME280;76780;43.120;5.934;2024-03-22T06:52:35;101994.03;;;16.96;63.87
86118;BME280;76780;43.120;5.934;2024-03-22T06:55:00;102000.34;;;16.93;63.38
86118;BME280;76780;43.120;5.934;2024-03-22T06:57:26;101993.50;;;17.47;62.52
86118;BME280;76780;43.120;5.934;2024-03-22T06:59:51;101987.03;;;17.71;60.56
86118;BME280;76780;43.120;5.934;2024-03-22T07:02:16;101982.19;;;18.31;59.40
86118;BME280;76780;43.120;5.934;2024-03-22T07:04:43;101984.22;;;18.19;58.26
86118;BME280;76780;43.120;5.934;2024-03-22T07:07:09;101986.59;;;18.81;56.67
86118;BME280;76780;43.120;5.934;2024-03-22T07:09:34;101981.25;;;18.15;58.68
86118;BME280;76780;43.120;5.934;2024-03-22T07:12:01;101986.44;;;18.37;59.17
86118;BME280;76780;43.120;5.934;2024-03-22T07:14:26;101986.44;;;18.49;57.22
86118;BME280;76780;43.120;5.934;2024-03-22T07:16:51;101995.97;;;19.24;54.24
86118;BME280;76780;43.120;5.934;2024-03-22T07:19:19;102004.75;;;19.78;52.75
86118;BME280;76780;43.120;5.934;2024-03-22T07:21:46;102005.03;;;20.04;52.04
86118;BME280;76780;43.120;5.934;2024-03-22T07:24:11;102003.72;;;19.55;53.24
86118;BME280;76780;43.120;5.934;2024-03-22T07:26:37;102004.00;;;19.50;54.79
86118;BME280;76780;43.120;5.934;2024-03-22T07:29:02;102005.84;;;20.20;53.38
86118;BME280;76780;43.120;5.934;2024-03-22T07:31:27;102000.44;;;19.84;53.01
86118;BME280;76780;43.120;5.934;2024-03-22T07:33:53;102008.34;;;19.04;55.33
86118;BME280;76780;43.120;5.934;2024-03-22T07:36:19;102010.00;;;18.78;56.37
86118;BME280;76780;43.120;5.934;2024-03-22T07:38:44;102002.34;;;20.42;52.30
86118;BME280;76780;43.120;5.934;2024-03-22T07:41:10;102007.97;;;21.11;50.13
86118;BME280;76780;43.120;5.934;2024-03-22T07:43:35;102011.41;;;21.39;48.99
86118;BME280;76780;43.120;5.934;2024-03-22T07:46:00;102015.97;;;20.71;50.66
86118;BME280;76780;43.120;5.934;2024-03-22T07:48:26;102007.94;;;21.30;48.71
86118;BME280;76780;43.120;5.934;2024-03-22T07:50:58;102010.50;;;21.16;49.41
86118;BME280;76780;43.120;5.934;2024-03-22T07:53:24;102012.41;;;20.55;50.87
86118;BME280;76780;43.120;5.934;2024-03-22T07:55:50;102013.19;;;21.09;49.54
86118;BME280;76780;43.120;5.934;2024-03-22T07:58:15;102017.44;;;22.24;46.30
86118;BME280;76780;43.120;5.934;2024-03-22T08:00:41;102010.41;;;22.44;46.15
86118;BME280;76780;43.120;5.934;2024-03-22T08:03:06;102007.97;;;19.76;52.32
86118;BME280;76780;43.120;5.934;2024-03-22T08:05:32;102013.31;;;20.59;50.97
86118;BME280;76780;43.120;5.934;2024-03-22T08:07:58;102014.09;;;21.96;46.82
86118;BME280;76780;43.120;5.934;2024-03-22T08:10:23;102015.38;;;22.47;45.38
86118;BME280;76780;43.120;5.934;2024-03-22T08:12:49;102014.63;;;22.50;46.20
86118;BME280;76780;43.120;5.934;2024-03-22T08:15:14;102011.84;;;22.83;45.18
86118;BME280;76780;43.120;5.934;2024-03-22T08:17:40;102016.06;;;21.92;47.08
86118;BME280;76780;43.120;5.934;2024-03-22T08:20:06;102019.88;;;22.48;46.33
86118;BME280;76780;43.120;5.934;2024-03-22T08:22:32;102019.22;;;22.87;45.91
86118;BME280;76780;43.120;5.934;2024-03-22T08:24:57;102018.25;;;23.06;45.60
86118;BME280;76780;43.120;5.934;2024-03-22T08:27:22;102021.53;;;23.08;45.40
86118;BME280;76780;43.120;5.934;2024-03-22T08:29:48;102018.00;;;23.18;45.50
86118;BME280;76780;43.120;5.934;2024-03-22T08:32:13;102017.59;;;22.86;45.77
86118;BME280;76780;43.120;5.934;2024-03-22T08:34:38;102022.16;;;23.24;45.38
86118;BME280;76780;43.120;5.934;2024-03-22T08:37:04;102022.50;;;23.52;44.24
86118;BME280;76780;43.120;5.934;2024-03-22T08:39:33;102025.84;;;23.57;44.23
86118;BME280;76780;43.120;5.934;2024-03-22T08:42:02;102020.50;;;23.93;43.50
86118;BME280;76780;43.120;5.934;2024-03-22T08:44:30;102020.34;;;24.76;40.52
86118;BME280;76780;43.120;5.934;2024-03-22T08:46:55;102037.63;;;24.36;41.33
86118;BME280;76780;43.120;5.934;2024-03-22T08:49:21;102027.44;;;24.42;41.64
86118;BME280;76780;43.120;5.934;2024-03-22T08:51:46;102027.81;;;24.98;41.15
86118;BME280;76780;43.120;5.934;2024-03-22T08:54:13;102027.03;;;25.01;40.20
86118;BME280;76780;43.120;5.934;2024-03-22T08:56:38;102027.63;;;24.63;41.31
86118;BME280;76780;43.120;5.934;2024-03-22T08:59:04;102027.88;;;24.44;42.35
86118;BME280;76780;43.120;5.934;2024-03-22T09:01:29;102029.72;;;24.73;40.75
86118;BME280;76780;43.120;5.934;2024-03-22T09:03:54;102027.03;;;25.01;40.82
86118;BME280;76780;43.120;5.934;2024-03-22T09:06:20;102030.03;;;24.07;42.69
86118;BME280;76780;43.120;5.934;2024-03-22T09:08:45;102031.31;;;24.13;42.61
86118;BME280;76780;43.120;5.934;2024-03-22T09:11:11;102033.31;;;23.69;44.05
86118;BME280;76780;43.120;5.934;2024-03-22T09:13:37;102028.25;;;23.55;44.58
86118;BME280;76780;43.120;5.934;2024-03-22T09:16:03;102023.81;;;23.98;43.59
86118;BME280;76780;43.120;5.934;2024-03-22T09:18:29;102022.38;;;24.72;41.63
86118;BME280;76780;43.120;5.934;2024-03-22T09:20:54;102023.00;;;24.01;43.31
86118;BME280;76780;43.120;5.934;2024-03-22T09:23:20;102024.50;;;24.89;41.65
86118;BME280;76780;43.120;5.934;2024-03-22T09:25:46;102017.16;;;24.88;41.50
86118;BME280;76780;43.120;5.934;2024-03-22T09:28:12;102016.63;;;24.18;43.86
86118;BME280;76780;43.120;5.934;2024-03-22T09:30:38;102027.53;;;24.56;42.56
86118;BME280;76780;43.120;5.934;2024-03-22T09:33:04;102025.72;;;24.27;43.97
86118;BME280;76780;43.120;5.934;2024-03-22T09:35:29;102022.88;;;23.87;44.29
86118;BME280;76780;43.120;5.934;2024-03-22T09:37:56;102028.63;;;23.54;45.19
86118;BME280;76780;43.120;5.934;2024-03-22T09:40:21;102022.50;;;23.52;45.09
86118;BME280;76780;43.120;5.934;2024-03-22T09:42:48;102025.88;;;23.61;45.05
86118;BME280;76780;43.120;5.934;2024-03-22T09:45:15;102027.72;;;23.83;44.58
86118;BME280;76780;43.120;5.934;2024-03-22T09:47:44;102023.63;;;23.11;46.59
86118;BME280;76780;43.120;5.934;2024-03-22T09:50:10;102039.22;;;23.17;46.71
86118;BME280;76780;43.120;5.934;2024-03-22T09:52:38;102023.00;;;23.24;45.89
86118;BME280;76780;43.120;5.934;2024-03-22T09:55:05;102028.53;;;23.43;46.42
86118;BME280;76780;43.120;5.934;2024-03-22T09:57:31;102033.41;;;23.76;44.44
86118;BME280;76780;43.120;5.934;2024-03-22T09:59:59;102029.31;;;23.11;46.77
86118;BME280;76780;43.120;5.934;2024-03-22T10:02:25;102028.19;;;23.48;45.85
86118;BME280;76780;43.120;5.934;2024-03-22T10:04:51;102030.53;;;22.51;48.93
86118;BME280;76780;43.120;5.934;2024-03-22T10:07:17;102030.84;;;22.46;49.59
86118;BME280;76780;43.120;5.934;2024-03-22T10:09:43;102035.66;;;22.42;48.87
86118;BME280;76780;43.120;5.934;2024-03-22T10:12:09;102027.75;;;21.64;50.92
86118;BME280;76780;43.120;5.934;2024-03-22T10:14:34;102026.16;;;21.25;53.04
86118;BME280;76780;43.120;5.934;2024-03-22T10:17:02;102026.09;;;21.22;52.97
86118;BME280;76780;43.120;5.934;2024-03-22T10:19:28;102025.41;;;22.15;50.32
86118;BME280;76780;43.120;5.934;2024-03-22T10:22:03;102020.63;;;22.71;48.95
86118;BME280;76780;43.120;5.934;2024-03-22T10:24:29;102024.50;;;23.18;47.23
86118;BME280;76780;43.120;5.934;2024-03-22T10:26:55;102029.84;;;22.87;48.09
86118;BME280;76780;43.120;5.934;2024-03-22T10:29:21;102010.66;;;23.17;47.00
86118;BME280;76780;43.120;5.934;2024-03-22T10:31:47;102026.41;;;23.37;46.21
86118;BME280;76780;43.120;5.934;2024-03-22T10:34:13;102022.22;;;22.98;47.21
86118;BME280;76780;43.120;5.934;2024-03-22T10:36:38;102015.53;;;23.16;47.05
86118;BME280;76780;43.120;5.934;2024-03-22T10:39:05;102026.16;;;23.89;44.96
86118;BME280;76780;43.120;5.934;2024-03-22T10:41:32;102022.13;;;23.94;44.51
86118;BME280;76780;43.120;5.934;2024-03-22T10:43:57;102020.53;;;23.23;46.52
86118;BME280;76780;43.120;5.934;2024-03-22T10:46:29;102022.59;;;23.59;45.14
86118;BME280;76780;43.120;5.934;2024-03-22T10:48:55;102017.25;;;23.21;46.17
86118;BME280;76780;43.120;5.934;2024-03-22T10:51:23;102017.16;;;23.87;43.92
86118;BME280;76780;43.120;5.934;2024-03-22T10:53:51;102013.91;;;23.88;44.21
86118;BME280;76780;43.120;5.934;2024-03-22T10:56:21;102009.72;;;23.79;44.13
86118;BME280;76780;43.120;5.934;2024-03-22T10:58:48;102014.53;;;21.98;47.54
86118;BME280;76780;43.120;5.934;2024-03-22T11:01:25;102003.50;;;22.71;46.74
86118;BME280;76780;43.120;5.934;2024-03-22T11:03:51;102010.84;;;23.31;45.57
86118;BME280;76780;43.120;5.934;2024-03-22T11:06:20;102000.69;;;23.37;45.72
86118;BME280;76780;43.120;5.934;2024-03-22T11:08:50;102002.47;;;22.56;46.68
86118;BME280;76780;43.120;5.934;2024-03-22T11:11:18;102001.38;;;22.94;46.31
86118;BME280;76780;43.120;5.934;2024-03-22T11:13:47;102001.59;;;22.82;46.38
86118;BME280;76780;43.120;5.934;2024-03-22T11:16:16;102002.88;;;22.32;47.45
86118;BME280;76780;43.120;5.934;2024-03-22T11:18:42;101988.69;;;21.65;49.43
86118;BME280;76780;43.120;5.934;2024-03-22T11:21:08;101995.28;;;21.69;49.22
86118;BME280;76780;43.120;5.934;2024-03-22T11:23:35;101993.22;;;22.40;47.54
86118;BME280;76780;43.120;5.934;2024-03-22T11:26:02;101990.53;;;22.77;45.89
86118;BME280;76780;43.120;5.934;2024-03-22T11:28:28;101994.34;;;22.58;46.78
86118;BME280;76780;43.120;5.934;2024-03-22T11:30:53;101979.16;;;22.25;46.31
86118;BME280;76780;43.120;5.934;2024-03-22T11:33:19;101982.34;;;22.20;46.84
86118;BME280;76780;43.120;5.934;2024-03-22T11:35:44;101976.19;;;22.18;48.48
86118;BME280;76780;43.120;5.934;2024-03-22T11:38:09;101988.78;;;22.17;47.99
86118;BME280;76780;43.120;5.934;2024-03-22T11:40:35;101969.56;;;21.88;49.02
86118;BME280;76780;43.120;5.934;2024-03-22T11:43:02;101970.59;;;21.99;49.66
86118;BME280;76780;43.120;5.934;2024-03-22T11:45:28;101961.84;;;21.66;51.13
86118;BME280;76780;43.120;5.934;2024-03-22T11:47:54;101961.03;;;21.24;52.66
86118;BME280;76780;43.120;5.934;2024-03-22T11:50:19;101971.59;;;21.23;53.02
86118;BME280;76780;43.120;5.934;2024-03-22T11:52:45;101966.31;;;21.03;53.69
86118;BME280;76780;43.120;5.934;2024-03-22T11:55:14;101972.63;;;21.76;51.16
86118;BME280;76780;43.120;5.934;2024-03-22T11:57:40;101967.38;;;21.14;52.70
86118;BME280;76780;43.120;5.934;2024-03-22T12:00:06;101963.56;;;21.70;51.52
86118;BME280;76780;43.120;5.934;2024-03-22T12:02:35;101954.94;;;21.67;51.41
86118;BME280;76780;43.120;5.934;2024-03-22T12:05:02;101962.81;;;21.73;51.29
86118;BME280;76780;43.120;5.934;2024-03-22T12:07:28;101960.34;;;21.72;52.67
86118;BME280;76780;43.120;5.934;2024-03-22T12:09:54;101963.56;;;22.71;49.60
86118;BME280;76780;43.120;5.934;2024-03-22T12:12:21;101963.47;;;22.12;50.90
86118;BME280;76780;43.120;5.934;2024-03-22T12:14:47;101954.84;;;22.60;50.48
86118;BME280;76780;43.120;5.934;2024-03-22T12:17:13;101948.25;;;22.86;49.56
86118;BME280;76780;43.120;5.934;2024-03-22T12:19:38;101955.34;;;22.66;49.75
86118;BME280;76780;43.120;5.934;2024-03-22T12:22:06;101952.31;;;22.85;49.03
86118;BME280;76780;43.120;5.934;2024-03-22T12:24:32;101947.03;;;23.20;48.27
86118;BME280;76780;43.120;5.934;2024-03-22T12:26:58;101941.63;;;23.48;47.09
86118;BME280;76780;43.120;5.934;2024-03-22T12:29:23;101941.28;;;23.16;47.70
86118;BME280;76780;43.120;5.934;2024-03-22T12:31:49;101940.66;;;22.12;50.79
86118;BME280;76780;43.120;5.934;2024-03-22T12:34:15;101948.75;;;22.62;49.53
86118;BME280;76780;43.120;5.934;2024-03-22T12:36:40;101931.56;;;22.03;50.79
86118;BME280;76780;43.120;5.934;2024-03-22T12:39:06;101936.91;;;22.93;47.91
86118;BME280;76780;43.120;5.934;2024-03-22T12:41:32;101936.47;;;21.80;50.98
86118;BME280;76780;43.120;5.934;2024-03-22T12:43:58;101933.31;;;22.11;50.45